Anderson, IN

3:25 PM EDT on March 26, 2015 (GMT -0400)
Rydman and Fox, Inc. | Change Station
CLOSE
Current Station
Personal Weather Station
Location: Anderson, IN
Elevation: 875 ft
Nearby Weather Stations

Elev 875 ft 40.19 °N, 85.75 °W | Updated 1 day ago

Cloudy
Cloudy
42 °F
Feels Like 36 °F
N
12
Wind Variable Wind from NW
Gusts mph

Today
High -- | Low -- °F
--% Chance of Precip.
Yesterday
High -- | Low -- °F
Precip. -- in
7:36 AM 8:01 PM
Waxing Crescent, 45% visible
Pressure 29.91 in
Visibility 7.0 miles
Clouds Overcast 2400 ft
Windchill 36 °F
Dew Point 29 °F
Humidity 59%
Rainfall in
Snow Depth Not available.
UV 2 out of 12
Pollen 1.20 out of 12
Air Quality Not available.
Flu Activity Not available.
METAR KMZZ 261915Z AUTO 31013G16KT 7SM OVC024 05/00 A2991 RMK AO2 T00480000

More Conditions Fewer Conditions

Pressure 29.91 in
Visibility 7.0 miles
Clouds Overcast 2400 ft
Windchill 36 °F
Dew Point 29 °F
Humidity 59%
Rainfall in
Snow Depth Not available.
UV 2 out of 12
Pollen 1.20 out of 12
Air Quality Not available.
Flu Activity Not available.
METAR KMZZ 261915Z AUTO 31013G16KT 7SM OVC024 05/00 A2991 RMK AO2 T00480000

More Conditions Fewer Conditions

10-Day Weather Forecast

Almanac

Astronomy

Mar. 26, 2015 Rise Set
Actual Time
Civil Twilight
Nautical Twilight
Astronomical Twilight
Moon
Length of Visible Light
Length of Day
Tomorrow will be .
, % of the Moon is Illuminated

Today's Extremes

State Highs State Lows

Community

WunderPhotos

Upload Photos

1,808,605 photos uploaded!

WunderBlogs® & News

Nearby

Air Quality

  Air Quality AQ Index Pollutant
Not available.

Snow Depth

Station Depth Elevation

Earthquake Activity

City Distance Mag. Time & Date
Minimum magnitude displayed is 2.5.

Coastal Water Temperatures

Place Temperature

Stations

Nearby Weather Stations

Station Location Temp. Windchill Dew Point Humidity Wind Precip. Elev Updated Type